sensor_id;sensor_type;location;lat;lon;timestamp;pressure;altitude;pressure_sealevel;temperature;humidity
11114;BME280;5610;52.154;9.198;2024-01-27T00:00:31;102248.13;;;6.60;100.00
11114;BME280;5610;52.154;9.198;2024-01-27T00:03:16;102255.16;;;6.63;100.00
11114;BME280;5610;52.154;9.198;2024-01-27T00:06:02;102257.81;;;6.61;100.00
11114;BME280;5610;52.154;9.198;2024-01-27T00:08:47;102261.84;;;6.36;100.00
11114;BME280;5610;52.154;9.198;2024-01-27T00:11:32;102262.63;;;6.39;100.00
11114;BME280;5610;52.154;9.198;2024-01-27T00:14:19;102267.03;;;6.42;100.00
11114;BME280;5610;52.154;9.198;2024-01-27T00:17:04;102273.38;;;6.31;100.00
11114;BME280;5610;52.154;9.198;2024-01-27T00:19:49;102270.69;;;6.35;100.00
11114;BME280;5610;52.154;9.198;2024-01-27T00:22:35;102277.00;;;6.26;100.00
11114;BME280;5610;52.154;9.198;2024-01-27T00:25:20;102274.50;;;6.17;100.00
11114;BME280;5610;52.154;9.198;2024-01-27T00:28:06;102275.34;;;6.19;100.00
11114;BME280;5610;52.154;9.198;2024-01-27T00:30:52;102288.59;;;6.20;100.00
11114;BME280;5610;52.154;9.198;2024-01-27T00:33:38;102285.25;;;6.06;100.00
11114;BME280;5610;52.154;9.198;2024-01-27T00:36:23;102294.13;;;6.03;100.00
11114;BME280;5610;52.154;9.198;2024-01-27T00:39:08;102303.19;;;5.87;100.00
11114;BME280;5610;52.154;9.198;2024-01-27T00:41:54;102296.75;;;6.07;100.00
11114;BME280;5610;52.154;9.198;2024-01-27T00:44:42;102303.13;;;5.92;100.00
11114;BME280;5610;52.154;9.198;2024-01-27T00:47:29;102299.72;;;5.84;100.00
11114;BME280;5610;52.154;9.198;2024-01-27T00:50:14;102307.63;;;5.87;100.00
11114;BME280;5610;52.154;9.198;2024-01-27T00:52:59;102307.75;;;5.79;100.00
11114;BME280;5610;52.154;9.198;2024-01-27T00:55:44;102306.94;;;5.72;100.00
11114;BME280;5610;52.154;9.198;2024-01-27T00:58:30;102306.81;;;5.82;100.00
11114;BME280;5610;52.154;9.198;2024-01-27T01:01:15;102312.50;;;5.54;100.00
11114;BME280;5610;52.154;9.198;2024-01-27T01:04:01;102301.19;;;5.44;100.00
11114;BME280;5610;52.154;9.198;2024-01-27T01:06:47;102309.72;;;5.63;100.00
11114;BME280;5610;52.154;9.198;2024-01-27T01:09:32;102307.06;;;5.65;100.00
11114;BME280;5610;52.154;9.198;2024-01-27T01:12:17;102312.44;;;5.59;100.00
11114;BME280;5610;52.154;9.198;2024-01-27T01:15:03;102312.47;;;5.57;100.00
11114;BME280;5610;52.154;9.198;2024-01-27T01:17:48;102318.72;;;5.48;100.00
11114;BME280;5610;52.154;9.198;2024-01-27T01:20:35;102331.97;;;5.47;100.00
11114;BME280;5610;52.154;9.198;2024-01-27T01:23:20;102323.94;;;5.55;100.00
11114;BME280;5610;52.154;9.198;2024-01-27T01:26:06;102322.19;;;5.54;100.00
11114;BME280;5610;52.154;9.198;2024-01-27T01:28:51;102320.72;;;5.33;100.00
11114;BME280;5610;52.154;9.198;2024-01-27T01:31:36;102319.75;;;5.38;100.00
11114;BME280;5610;52.154;9.198;2024-01-27T01:34:21;102327.66;;;5.43;100.00
11114;BME280;5610;52.154;9.198;2024-01-27T01:37:07;102329.50;;;5.36;100.00
11114;BME280;5610;52.154;9.198;2024-01-27T01:39:53;102333.97;;;5.30;100.00
11114;BME280;5610;52.154;9.198;2024-01-27T01:42:38;102338.22;;;5.41;100.00
11114;BME280;5610;52.154;9.198;2024-01-27T01:45:23;102343.69;;;5.28;100.00
11114;BME280;5610;52.154;9.198;2024-01-27T01:48:09;102347.16;;;5.33;100.00
11114;BME280;5610;52.154;9.198;2024-01-27T01:50:54;102338.41;;;5.29;100.00
11114;BME280;5610;52.154;9.198;2024-01-27T01:53:41;102353.47;;;5.22;100.00
11114;BME280;5610;52.154;9.198;2024-01-27T01:56:27;102349.06;;;5.21;100.00
11114;BME280;5610;52.154;9.198;2024-01-27T01:59:13;102338.50;;;5.18;100.00
11114;BME280;5610;52.154;9.198;2024-01-27T02:01:58;102342.88;;;5.22;100.00
11114;BME280;5610;52.154;9.198;2024-01-27T02:04:44;102338.38;;;5.28;100.00
11114;BME280;5610;52.154;9.198;2024-01-27T02:07:30;102337.69;;;5.13;100.00
11114;BME280;5610;52.154;9.198;2024-01-27T02:10:17;102331.50;;;5.16;100.00
11114;BME280;5610;52.154;9.198;2024-01-27T02:13:03;102334.25;;;5.08;100.00
11114;BME280;5610;52.154;9.198;2024-01-27T02:15:50;102338.56;;;5.14;100.00
11114;BME280;5610;52.154;9.198;2024-01-27T02:18:36;102339.41;;;5.17;100.00
11114;BME280;5610;52.154;9.198;2024-01-27T02:21:21;102335.03;;;5.13;100.00
11114;BME280;5610;52.154;9.198;2024-01-27T02:24:08;102332.44;;;5.10;100.00
11114;BME280;5610;52.154;9.198;2024-01-27T02:26:54;102335.03;;;5.13;100.00
11114;BME280;5610;52.154;9.198;2024-01-27T02:29:39;102333.31;;;5.11;100.00
11114;BME280;5610;52.154;9.198;2024-01-27T02:32:25;102344.00;;;5.02;100.00
11114;BME280;5610;52.154;9.198;2024-01-27T02:35:10;102346.66;;;5.00;100.00
11114;BME280;5610;52.154;9.198;2024-01-27T02:37:56;102354.72;;;4.88;100.00
11114;BME280;5610;52.154;9.198;2024-01-27T02:40:43;102352.91;;;4.94;100.00
11114;BME280;5610;52.154;9.198;2024-01-27T02:43:29;102354.63;;;4.97;100.00
11114;BME280;5610;52.154;9.198;2024-01-27T02:46:14;102353.72;;;4.98;100.00
11114;BME280;5610;52.154;9.198;2024-01-27T02:48:59;102343.13;;;5.01;100.00
11114;BME280;5610;52.154;9.198;2024-01-27T02:51:44;102349.28;;;5.02;100.00
11114;BME280;5610;52.154;9.198;2024-01-27T02:54:30;102341.53;;;4.86;100.00
11114;BME280;5610;52.154;9.198;2024-01-27T02:57:16;102333.47;;;4.99;100.00
11114;BME280;5610;52.154;9.198;2024-01-27T03:00:04;102338.75;;;4.99;100.00
11114;BME280;5610;52.154;9.198;2024-01-27T03:02:50;102336.97;;;4.99;100.00
11114;BME280;5610;52.154;9.198;2024-01-27T03:05:35;102345.88;;;4.90;100.00
11114;BME280;5610;52.154;9.198;2024-01-27T03:08:20;102353.84;;;4.86;100.00
11114;BME280;5610;52.154;9.198;2024-01-27T03:11:05;102368.72;;;4.96;100.00
11114;BME280;5610;52.154;9.198;2024-01-27T03:13:51;102364.41;;;4.87;100.00
11114;BME280;5610;52.154;9.198;2024-01-27T03:16:36;102369.72;;;4.84;100.00
11114;BME280;5610;52.154;9.198;2024-01-27T03:19:21;102378.44;;;4.91;100.00
11114;BME280;5610;52.154;9.198;2024-01-27T03:22:07;102376.81;;;4.81;100.00
11114;BME280;5610;52.154;9.198;2024-01-27T03:24:52;102368.75;;;4.93;100.00
11114;BME280;5610;52.154;9.198;2024-01-27T03:27:39;102375.75;;;4.97;100.00
11114;BME280;5610;52.154;9.198;2024-01-27T03:30:25;102374.91;;;4.95;100.00
11114;BME280;5610;52.154;9.198;2024-01-27T03:33:11;102371.38;;;4.96;100.00
11114;BME280;5610;52.154;9.198;2024-01-27T03:35:56;102374.91;;;4.95;100.00
11114;BME280;5610;52.154;9.198;2024-01-27T03:38:42;102376.69;;;4.91;100.00
11114;BME280;5610;52.154;9.198;2024-01-27T03:41:27;102375.13;;;4.71;100.00
11114;BME280;5610;52.154;9.198;2024-01-27T03:44:12;102374.91;;;4.92;100.00
11114;BME280;5610;52.154;9.198;2024-01-27T03:46:58;102370.59;;;4.85;100.00
11114;BME280;5610;52.154;9.198;2024-01-27T03:49:44;102374.91;;;4.95;100.00
11114;BME280;5610;52.154;9.198;2024-01-27T03:52:29;102386.38;;;4.94;100.00
11114;BME280;5610;52.154;9.198;2024-01-27T03:55:14;102387.41;;;4.79;100.00
11114;BME280;5610;52.154;9.198;2024-01-27T03:57:59;102396.22;;;4.77;100.00
11114;BME280;5610;52.154;9.198;2024-01-27T04:00:44;102393.59;;;4.74;100.00
11114;BME280;5610;52.154;9.198;2024-01-27T04:03:31;102397.94;;;4.81;100.00
11114;BME280;5610;52.154;9.198;2024-01-27T04:06:16;102403.13;;;4.90;100.00
11114;BME280;5610;52.154;9.198;2024-01-27T04:09:01;102402.28;;;4.88;100.00
11114;BME280;5610;52.154;9.198;2024-01-27T04:11:46;102398.72;;;4.90;100.00
11114;BME280;5610;52.154;9.198;2024-01-27T04:14:32;102388.13;;;4.92;100.00
11114;BME280;5610;52.154;9.198;2024-01-27T04:17:17;102395.16;;;4.93;100.00
11114;BME280;5610;52.154;9.198;2024-01-27T04:20:04;102393.44;;;4.89;100.00
11114;BME280;5610;52.154;9.198;2024-01-27T04:22:50;102394.25;;;4.95;100.00
11114;BME280;5610;52.154;9.198;2024-01-27T04:25:36;102386.44;;;4.85;100.00
11114;BME280;5610;52.154;9.198;2024-01-27T04:28:21;102386.34;;;4.95;100.00
11114;BME280;5610;52.154;9.198;2024-01-27T04:31:07;102387.28;;;4.88;100.00
11114;BME280;5610;52.154;9.198;2024-01-27T04:33:52;102397.78;;;4.93;100.00
11114;BME280;5610;52.154;9.198;2024-01-27T04:36:39;102397.88;;;4.87;100.00
11114;BME280;5610;52.154;9.198;2024-01-27T04:39:24;102396.06;;;4.92;100.00
11114;BME280;5610;52.154;9.198;2024-01-27T04:42:09;102394.25;;;4.97;100.00
11114;BME280;5610;52.154;9.198;2024-01-27T04:44:55;102394.38;;;4.86;100.00
11114;BME280;5610;52.154;9.198;2024-01-27T04:47:40;102403.09;;;4.94;100.00
11114;BME280;5610;52.154;9.198;2024-01-27T04:50:25;102415.38;;;4.97;100.00
11114;BME280;5610;52.154;9.198;2024-01-27T04:53:12;102407.50;;;4.94;100.00
11114;BME280;5610;52.154;9.198;2024-01-27T04:55:57;102404.03;;;4.89;100.00
11114;BME280;5610;52.154;9.198;2024-01-27T04:58:42;102408.50;;;4.78;100.00
11114;BME280;5610;52.154;9.198;2024-01-27T05:01:27;102419.00;;;4.87;100.00
11114;BME280;5610;52.154;9.198;2024-01-27T05:04:13;102425.03;;;5.00;100.00
11114;BME280;5610;52.154;9.198;2024-01-27T05:06:59;102426.81;;;4.97;100.00
11114;BME280;5610;52.154;9.198;2024-01-27T05:09:45;102435.59;;;5.03;100.00
11114;BME280;5610;52.154;9.198;2024-01-27T05:12:31;102440.88;;;5.03;100.00
11114;BME280;5610;52.154;9.198;2024-01-27T05:15:16;102428.53;;;5.00;100.00
11114;BME280;5610;52.154;9.198;2024-01-27T05:18:02;102440.06;;;4.96;100.00
11114;BME280;5610;52.154;9.198;2024-01-27T05:20:47;102443.53;;;4.98;100.00
11114;BME280;5610;52.154;9.198;2024-01-27T05:23:32;102447.94;;;5.01;100.00
11114;BME280;5610;52.154;9.198;2024-01-27T05:26:18;102459.44;;;4.92;100.00
11114;BME280;5610;52.154;9.198;2024-01-27T05:29:04;102459.31;;;5.06;100.00
11114;BME280;5610;52.154;9.198;2024-01-27T05:31:49;102459.41;;;4.98;100.00
11114;BME280;5610;52.154;9.198;2024-01-27T05:34:35;102458.63;;;4.88;100.00
11114;BME280;5610;52.154;9.198;2024-01-27T05:37:19;102471.91;;;4.81;100.00
11114;BME280;5610;52.154;9.198;2024-01-27T05:40:06;102467.63;;;4.66;100.00
11114;BME280;5610;52.154;9.198;2024-01-27T05:42:53;102470.34;;;4.52;100.00
11114;BME280;5610;52.154;9.198;2024-01-27T05:45:38;102474.81;;;4.43;100.00
11114;BME280;5610;52.154;9.198;2024-01-27T05:48:23;102464.34;;;4.32;100.00
11114;BME280;5610;52.154;9.198;2024-01-27T05:51:08;102477.59;;;4.20;100.00
11114;BME280;5610;52.154;9.198;2024-01-27T05:53:54;102475.84;;;4.16;100.00
11114;BME280;5610;52.154;9.198;2024-01-27T05:56:39;102482.94;;;4.06;100.00
11114;BME280;5610;52.154;9.198;2024-01-27T05:59:26;102478.59;;;3.94;100.00
11114;BME280;5610;52.154;9.198;2024-01-27T06:02:11;102483.00;;;3.92;100.00
11114;BME280;5610;52.154;9.198;2024-01-27T06:04:56;102494.50;;;3.83;100.00
11114;BME280;5610;52.154;9.198;2024-01-27T06:07:42;102489.22;;;3.77;100.00
11114;BME280;5610;52.154;9.198;2024-01-27T06:10:29;102504.19;;;3.71;100.00
11114;BME280;5610;52.154;9.198;2024-01-27T06:13:15;102512.13;;;3.69;100.00
11114;BME280;5610;52.154;9.198;2024-01-27T06:16:06;102505.97;;;3.63;100.00
11114;BME280;5610;52.154;9.198;2024-01-27T06:18:52;102512.16;;;3.57;100.00
11114;BME280;5610;52.154;9.198;2024-01-27T06:21:38;102510.41;;;3.54;100.00
11114;BME280;5610;52.154;9.198;2024-01-27T06:24:23;102512.16;;;3.57;100.00
11114;BME280;5610;52.154;9.198;2024-01-27T06:27:08;102509.53;;;3.55;100.00
11114;BME280;5610;52.154;9.198;2024-01-27T06:29:53;102511.28;;;3.52;100.00
11114;BME280;5610;52.154;9.198;2024-01-27T06:32:40;102513.91;;;3.55;100.00
11114;BME280;5610;52.154;9.198;2024-01-27T06:35:25;102517.41;;;3.65;100.00
11114;BME280;5610;52.154;9.198;2024-01-27T06:38:10;102520.91;;;3.65;100.00
11114;BME280;5610;52.154;9.198;2024-01-27T06:40:55;102521.78;;;3.66;100.00
11114;BME280;5610;52.154;9.198;2024-01-27T06:43:40;102528.81;;;3.64;100.00
11114;BME280;5610;52.154;9.198;2024-01-27T06:46:25;102530.59;;;3.55;100.00
11114;BME280;5610;52.154;9.198;2024-01-27T06:49:12;102527.09;;;3.50;100.00
11114;BME280;5610;52.154;9.198;2024-01-27T06:51:57;102540.28;;;3.47;100.00
11114;BME280;5610;52.154;9.198;2024-01-27T06:54:42;102543.81;;;3.40;100.00
11114;BME280;5610;52.154;9.198;2024-01-27T06:57:28;102549.97;;;3.35;100.00
11114;BME280;5610;52.154;9.198;2024-01-27T07:00:14;102548.22;;;3.26;100.00
11114;BME280;5610;52.154;9.198;2024-01-27T07:02:59;102562.28;;;3.19;100.00
11114;BME280;5610;52.154;9.198;2024-01-27T07:05:46;102560.53;;;3.18;100.00
11114;BME280;5610;52.154;9.198;2024-01-27T07:08:31;102568.44;;;3.13;100.00
11114;BME280;5610;52.154;9.198;2024-01-27T07:11:16;102564.91;;;3.10;100.00
11114;BME280;5610;52.154;9.198;2024-01-27T07:14:01;102563.16;;;3.04;100.00
11114;BME280;5610;52.154;9.198;2024-01-27T07:16:46;102564.00;;;3.03;100.00
11114;BME280;5610;52.154;9.198;2024-01-27T07:19:32;102567.53;;;3.07;100.00
11114;BME280;5610;52.154;9.198;2024-01-27T07:22:18;102573.69;;;3.06;100.00
11114;BME280;5610;52.154;9.198;2024-01-27T07:25:04;102567.53;;;3.10;100.00
11114;BME280;5610;52.154;9.198;2024-01-27T07:27:51;102572.81;;;3.07;100.00
11114;BME280;5610;52.154;9.198;2024-01-27T07:30:37;102572.81;;;3.00;100.00
11114;BME280;5610;52.154;9.198;2024-01-27T07:33:21;102570.19;;;3.07;100.00
11114;BME280;5610;52.154;9.198;2024-01-27T07:36:08;102570.19;;;3.05;100.00
11114;BME280;5610;52.154;9.198;2024-01-27T07:38:56;102560.50;;;2.92;100.00
11114;BME280;5610;52.154;9.198;2024-01-27T07:41:41;102579.84;;;3.11;100.00
11114;BME280;5610;52.154;9.198;2024-01-27T07:44:27;102583.38;;;3.19;100.00
11114;BME280;5610;52.154;9.198;2024-01-27T07:47:13;102584.22;;;3.28;100.00
11114;BME280;5610;52.154;9.198;2024-01-27T07:49:58;102577.22;;;3.32;100.00
11114;BME280;5610;52.154;9.198;2024-01-27T07:52:43;102578.06;;;3.42;100.00
11114;BME280;5610;52.154;9.198;2024-01-27T07:55:29;102583.34;;;3.46;100.00
11114;BME280;5610;52.154;9.198;2024-01-27T07:58:14;102587.72;;;3.43;100.00
11114;BME280;5610;52.154;9.198;2024-01-27T08:01:00;102587.75;;;3.46;100.00
11114;BME280;5610;52.154;9.198;2024-01-27T08:03:45;102582.44;;;3.52;100.00
11114;BME280;5610;52.154;9.198;2024-01-27T08:06:30;102592.09;;;3.59;100.00
11114;BME280;5610;52.154;9.198;2024-01-27T08:09:16;102602.66;;;3.68;100.00
11114;BME280;5610;52.154;9.198;2024-01-27T08:12:03;102595.59;;;3.73;100.00
11114;BME280;5610;52.154;9.198;2024-01-27T08:14:48;102591.19;;;3.81;100.00
11114;BME280;5610;52.154;9.198;2024-01-27T08:17:33;102609.63;;;3.91;100.00
11114;BME280;5610;52.154;9.198;2024-01-27T08:20:18;102608.72;;;4.02;100.00
11114;BME280;5610;52.154;9.198;2024-01-27T08:23:03;102614.84;;;4.12;100.00
11114;BME280;5610;52.154;9.198;2024-01-27T08:25:49;102613.03;;;4.25;100.00
11114;BME280;5610;52.154;9.198;2024-01-27T08:28:38;102627.06;;;4.39;100.00
11114;BME280;5610;52.154;9.198;2024-01-27T08:31:23;102613.78;;;4.50;100.00
11114;BME280;5610;52.154;9.198;2024-01-27T08:34:08;102622.56;;;4.61;100.00
11114;BME280;5610;52.154;9.198;2024-01-27T08:37:02;102627.75;;;4.75;100.00
11114;BME280;5610;52.154;9.198;2024-01-27T08:39:47;102623.28;;;4.86;100.00
11114;BME280;5610;52.154;9.198;2024-01-27T08:42:32;102617.03;;;4.99;100.00
11114;BME280;5610;52.154;9.198;2024-01-27T08:45:19;102613.44;;;5.09;100.00
11114;BME280;5610;52.154;9.198;2024-01-27T08:48:05;102621.28;;;5.21;100.00
11114;BME280;5610;52.154;9.198;2024-01-27T08:50:51;102612.38;;;5.36;100.00
11114;BME280;5610;52.154;9.198;2024-01-27T08:53:36;102622.78;;;5.53;100.00
11114;BME280;5610;52.154;9.198;2024-01-27T08:56:21;102619.13;;;5.66;100.00
11114;BME280;5610;52.154;9.198;2024-01-27T08:59:07;102622.47;;;5.84;100.00
11114;BME280;5610;52.154;9.198;2024-01-27T09:01:53;102626.72;;;6.03;100.00
11114;BME280;5610;52.154;9.198;2024-01-27T09:04:39;102625.63;;;6.22;100.00
11114;BME280;5610;52.154;9.198;2024-01-27T09:07:24;102607.75;;;6.40;100.00
11114;BME280;5610;52.154;9.198;2024-01-27T09:10:09;102610.97;;;6.61;100.00
11114;BME280;5610;52.154;9.198;2024-01-27T09:12:56;102606.34;;;6.79;100.00
11114;BME280;5610;52.154;9.198;2024-01-27T09:15:41;102605.13;;;7.01;100.00
11114;BME280;5610;52.154;9.198;2024-01-27T09:18:27;102611.06;;;7.15;100.00
11114;BME280;5610;52.154;9.198;2024-01-27T09:21:13;102602.63;;;7.44;100.00
11114;BME280;5610;52.154;9.198;2024-01-27T09:24:04;102614.72;;;7.61;100.00
11114;BME280;5610;52.154;9.198;2024-01-27T09:26:50;102620.38;;;7.92;100.00
11114;BME280;5610;52.154;9.198;2024-01-27T09:29:35;102623.56;;;8.09;100.00
11114;BME280;5610;52.154;9.198;2024-01-27T09:32:20;102626.69;;;8.30;100.00
11114;BME280;5610;52.154;9.198;2024-01-27T09:35:07;102626.28;;;8.51;100.00
11114;BME280;5610;52.154;9.198;2024-01-27T09:37:52;102627.50;;;8.76;100.00
11114;BME280;5610;52.154;9.198;2024-01-27T09:40:38;102630.47;;;9.01;100.00
11114;BME280;5610;52.154;9.198;2024-01-27T09:43:25;102640.88;;;9.12;100.00
11114;BME280;5610;52.154;9.198;2024-01-27T09:46:11;102633.34;;;9.29;100.00
11114;BME280;5610;52.154;9.198;2024-01-27T09:48:57;102650.25;;;9.62;100.00
11114;BME280;5610;52.154;9.198;2024-01-27T09:51:44;102652.91;;;9.97;100.00
11114;BME280;5610;52.154;9.198;2024-01-27T09:54:29;102644.28;;;10.19;100.00
11114;BME280;5610;52.154;9.198;2024-01-27T09:57:14;102641.69;;;10.49;100.00
11114;BME280;5610;52.154;9.198;2024-01-27T10:00:03;102651.47;;;10.80;100.00
11114;BME280;5610;52.154;9.198;2024-01-27T10:02:49;102651.31;;;11.12;100.00
11114;BME280;5610;52.154;9.198;2024-01-27T10:05:35;102644.41;;;11.60;100.00
11114;BME280;5610;52.154;9.198;2024-01-27T10:08:23;102642.50;;;11.90;98.93
11114;BME280;5610;52.154;9.198;2024-01-27T10:11:09;102639.88;;;12.38;94.43
11114;BME280;5610;52.154;9.198;2024-01-27T10:13:55;102640.66;;;12.87;90.02
11114;BME280;5610;52.154;9.198;2024-01-27T10:16:42;102647.13;;;13.27;82.69
11114;BME280;5610;52.154;9.198;2024-01-27T10:19:27;102645.53;;;13.65;77.29
11114;BME280;5610;52.154;9.198;2024-01-27T10:22:12;102648.31;;;14.04;74.08
11114;BME280;5610;52.154;9.198;2024-01-27T10:24:59;102645.72;;;14.21;71.38
11114;BME280;5610;52.154;9.198;2024-01-27T10:27:45;102645.47;;;14.67;67.47
11114;BME280;5610;52.154;9.198;2024-01-27T10:30:31;102640.94;;;15.24;64.14
11114;BME280;5610;52.154;9.198;2024-01-27T10:33:16;102646.06;;;15.82;61.63
11114;BME280;5610;52.154;9.198;2024-01-27T10:36:02;102633.28;;;15.87;60.62
11114;BME280;5610;52.154;9.198;2024-01-27T10:38:47;102636.38;;;16.12;59.57
11114;BME280;5610;52.154;9.198;2024-01-27T10:41:34;102641.00;;;16.43;57.98
11114;BME280;5610;52.154;9.198;2024-01-27T10:44:21;102631.69;;;16.49;57.07
11114;BME280;5610;52.154;9.198;2024-01-27T10:47:09;102642.22;;;17.02;57.35
11114;BME280;5610;52.154;9.198;2024-01-27T10:50:01;102636.75;;;17.50;55.58
11114;BME280;5610;52.154;9.198;2024-01-27T10:52:47;102631.50;;;17.78;54.33
11114;BME280;5610;52.154;9.198;2024-01-27T10:55:33;102628.34;;;18.00;52.75
11114;BME280;5610;52.154;9.198;2024-01-27T10:58:22;102617.25;;;18.90;52.09
11114;BME280;5610;52.154;9.198;2024-01-27T11:01:09;102615.28;;;19.61;49.33
11114;BME280;5610;52.154;9.198;2024-01-27T11:03:56;102603.34;;;21.02;47.31
11114;BME280;5610;52.154;9.198;2024-01-27T11:06:42;102593.97;;;21.89;44.53
11114;BME280;5610;52.154;9.198;2024-01-27T11:09:28;102604.50;;;22.72;42.77
11114;BME280;5610;52.154;9.198;2024-01-27T11:12:15;102602.50;;;21.96;43.86
11114;BME280;5610;52.154;9.198;2024-01-27T11:15:01;102600.34;;;23.43;42.31
11114;BME280;5610;52.154;9.198;2024-01-27T11:17:47;102606.09;;;25.53;38.57
11114;BME280;5610;52.154;9.198;2024-01-27T11:20:32;102604.94;;;26.68;36.41
11114;BME280;5610;52.154;9.198;2024-01-27T11:23:18;102609.16;;;27.79;35.37
11114;BME280;5610;52.154;9.198;2024-01-27T11:26:04;102596.31;;;28.82;32.88
11114;BME280;5610;52.154;9.198;2024-01-27T11:28:50;102596.44;;;30.13;31.73
11114;BME280;5610;52.154;9.198;2024-01-27T11:31:40;102593.97;;;30.34;30.14
11114;BME280;5610;52.154;9.198;2024-01-27T11:34:25;102603.25;;;31.03;29.76
11114;BME280;5610;52.154;9.198;2024-01-27T11:37:12;102595.06;;;30.95;29.02
11114;BME280;5610;52.154;9.198;2024-01-27T11:40:03;102597.91;;;31.33;28.89
11114;BME280;5610;52.154;9.198;2024-01-27T11:42:55;102598.16;;;31.46;28.53
11114;BME280;5610;52.154;9.198;2024-01-27T11:45:41;102599.53;;;31.65;28.92
11114;BME280;5610;52.154;9.198;2024-01-27T11:48:28;102594.41;;;31.77;29.13
11114;BME280;5610;52.154;9.198;2024-01-27T11:51:13;102589.63;;;33.03;26.84
11114;BME280;5610;52.154;9.198;2024-01-27T11:53:58;102590.63;;;32.81;27.72
11114;BME280;5610;52.154;9.198;2024-01-27T11:56:44;102594.19;;;34.10;26.92
11114;BME280;5610;52.154;9.198;2024-01-27T11:59:29;102592.78;;;34.21;25.56
11114;BME280;5610;52.154;9.198;2024-01-27T12:02:14;102586.66;;;33.69;26.24
11114;BME280;5610;52.154;9.198;2024-01-27T12:05:01;102594.94;;;34.32;26.14
11114;BME280;5610;52.154;9.198;2024-01-27T12:07:47;102591.09;;;34.61;25.51
11114;BME280;5610;52.154;9.198;2024-01-27T12:10:32;102601.31;;;34.32;25.50
11114;BME280;5610;52.154;9.198;2024-01-27T12:13:18;102601.50;;;35.27;25.01
11114;BME280;5610;52.154;9.198;2024-01-27T12:16:03;102607.28;;;35.52;24.71
11114;BME280;5610;52.154;9.198;2024-01-27T12:18:52;102598.13;;;34.29;24.53
11114;BME280;5610;52.154;9.198;2024-01-27T12:21:47;102584.38;;;34.07;24.72
11114;BME280;5610;52.154;9.198;2024-01-27T12:24:32;102586.94;;;33.53;25.68
11114;BME280;5610;52.154;9.198;2024-01-27T12:27:17;102586.72;;;34.10;24.81
11114;BME280;5610;52.154;9.198;2024-01-27T12:30:04;102584.69;;;33.63;25.25
11114;BME280;5610;52.154;9.198;2024-01-27T12:32:49;102599.00;;;33.95;25.10
11114;BME280;5610;52.154;9.198;2024-01-27T12:35:35;102591.16;;;33.98;24.80
11114;BME280;5610;52.154;9.198;2024-01-27T12:38:22;102587.66;;;33.40;25.24
11114;BME280;5610;52.154;9.198;2024-01-27T12:41:07;102580.97;;;33.28;25.52
11114;BME280;5610;52.154;9.198;2024-01-27T12:43:52;102587.22;;;32.79;26.18
11114;BME280;5610;52.154;9.198;2024-01-27T12:46:37;102585.16;;;33.02;25.92
11114;BME280;5610;52.154;9.198;2024-01-27T12:49:22;102584.16;;;33.53;25.43
11114;BME280;5610;52.154;9.198;2024-01-27T12:52:08;102576.84;;;33.95;25.10
11114;BME280;5610;52.154;9.198;2024-01-27T12:54:55;102573.16;;;33.59;24.76
11114;BME280;5610;52.154;9.198;2024-01-27T12:57:40;102577.78;;;34.08;24.34
11114;BME280;5610;52.154;9.198;2024-01-27T13:00:25;102576.56;;;33.61;24.54
11114;BME280;5610;52.154;9.198;2024-01-27T13:03:11;102571.28;;;34.23;24.71
11114;BME280;5610;52.154;9.198;2024-01-27T13:05:56;102567.38;;;33.12;25.16
11114;BME280;5610;52.154;9.198;2024-01-27T13:08:42;102570.72;;;34.40;24.20
11114;BME280;5610;52.154;9.198;2024-01-27T13:11:29;102579.72;;;31.84;25.73
11114;BME280;5610;52.154;9.198;2024-01-27T13:14:14;102581.81;;;32.12;25.98
11114;BME280;5610;52.154;9.198;2024-01-27T13:17:01;102572.88;;;32.54;25.77
11114;BME280;5610;52.154;9.198;2024-01-27T13:19:47;102575.72;;;32.61;25.57
11114;BME280;5610;52.154;9.198;2024-01-27T13:22:32;102558.34;;;32.82;25.24
11114;BME280;5610;52.154;9.198;2024-01-27T13:25:17;102563.88;;;31.63;26.25
11114;BME280;5610;52.154;9.198;2024-01-27T13:28:04;102568.25;;;29.94;27.46
11114;BME280;5610;52.154;9.198;2024-01-27T13:30:51;102566.41;;;29.21;28.15
11114;BME280;5610;52.154;9.198;2024-01-27T13:33:36;102575.59;;;28.37;28.82
11114;BME280;5610;52.154;9.198;2024-01-27T13:36:21;102575.06;;;27.20;29.47
11114;BME280;5610;52.154;9.198;2024-01-27T13:39:06;102575.47;;;24.91;31.68
11114;BME280;5610;52.154;9.198;2024-01-27T13:41:52;102577.59;;;24.07;33.58
11114;BME280;5610;52.154;9.198;2024-01-27T13:44:38;102582.38;;;23.94;33.55
11114;BME280;5610;52.154;9.198;2024-01-27T13:47:24;102565.88;;;22.57;34.61
11114;BME280;5610;52.154;9.198;2024-01-27T13:50:11;102584.50;;;21.00;37.41
11114;BME280;5610;52.154;9.198;2024-01-27T13:52:56;102577.09;;;19.91;38.72
11114;BME280;5610;52.154;9.198;2024-01-27T13:55:41;102579.72;;;18.86;40.14
11114;BME280;5610;52.154;9.198;2024-01-27T13:58:28;102588.09;;;17.07;43.84
11114;BME280;5610;52.154;9.198;2024-01-27T14:01:15;102587.97;;;16.12;44.50
11114;BME280;5610;52.154;9.198;2024-01-27T14:04:00;102585.88;;;15.84;45.65
11114;BME280;5610;52.154;9.198;2024-01-27T14:06:45;102590.59;;;15.10;46.79
11114;BME280;5610;52.154;9.198;2024-01-27T14:09:31;102587.19;;;14.31;48.76
11114;BME280;5610;52.154;9.198;2024-01-27T14:12:16;102591.06;;;14.05;48.70
11114;BME280;5610;52.154;9.198;2024-01-27T14:15:03;102605.16;;;13.27;51.10
11114;BME280;5610;52.154;9.198;2024-01-27T14:17:52;102607.44;;;13.36;51.95
11114;BME280;5610;52.154;9.198;2024-01-27T14:20:37;102602.16;;;13.13;52.84
11114;BME280;5610;52.154;9.198;2024-01-27T14:23:23;102605.47;;;13.19;53.05
11114;BME280;5610;52.154;9.198;2024-01-27T14:26:08;102601.47;;;12.86;53.83
11114;BME280;5610;52.154;9.198;2024-01-27T14:28:58;102605.94;;;13.07;53.74
11114;BME280;5610;52.154;9.198;2024-01-27T14:31:44;102612.00;;;13.12;54.13
11114;BME280;5610;52.154;9.198;2024-01-27T14:34:31;102603.75;;;13.17;54.66
11114;BME280;5610;52.154;9.198;2024-01-27T14:37:16;102601.00;;;12.75;55.74